Hafnia Crux — OUNI2 — position and weather

sailwx.info

Track history (hours):
 
Tides and Currents Weather Stations Pressure Air Temp Water Temp Dewpoint Dewpoint Depression Visibility Wind Speed Wind Dir Waves Ship Positions

Hafnia Crux

Last reported at 2017-Nov-30 14:52 UTC. Time now 2017-Dec-12 21:58 UTC.
Position N 01°18' E 104°01'.
Warning: this ship's position is 12 days out of date.

Length 183 m; draft 12 m.

Type: Ship. MMSI: 219398000.

Date/timePositionNaut miles runAvg speedWind from/ knotsBaromVisibWave heightAir tempDewpointWater temp
2017-Nov-30 14:52N 01°18' E 104°01'0 0.0
2017-Nov-30 05:22N 01°18' E 104°01'0 0.0
2017-Nov-30 04:59N 01°18' E 104°01'1 1.1
2017-Nov-30 04:26N 01°17' E 104°00'3 6.3
2017-Nov-30 04:00N 01°16' E 103°58'3 5.7
2017-Nov-30 03:30N 01°14' E 103°56'4 7.2
2017-Nov-30 03:00N 01°12' E 103°53'4 7.3
2017-Nov-30 02:30N 01°10' E 103°50'3 6.0
2017-Nov-30 02:01N 01°09' E 103°47'3 6.6
2017-Nov-30 01:30N 01°07' E 103°45'3 6.5
2017-Nov-30 01:00N 01°04' E 103°42'3 5.9
2017-Nov-30 00:30N 01°03' E 103°40'4 6.6
2017-Nov-29 23:58N 01°03' E 103°37'510.2
2017-Nov-29 23:30N 01°06' E 103°32'612.4
2017-Nov-29 23:00N 01°10' E 103°27'  
Track history (hours):
 
Tides and Currents Weather Stations Pressure Air Temp Water Temp Dewpoint Dewpoint Depression Visibility Wind Speed Wind Dir Waves Ship Positions

Hafnia Crux

Last reported at 2017-Nov-30 14:52 UTC. Time now 2017-Dec-12 21:58 UTC.
Position N 01°18' E 104°01'.
Warning: this ship's position is 12 days out of date.

Length 183 m; draft 12 m.

Type: Ship. MMSI: 219398000.

Date/timePositionNaut miles runAvg speedWind from/ knotsBaromVisibWave heightAir tempDewpointWater temp
2017-Nov-30 14:52N 01°18' E 104°01'0 0.0
2017-Nov-30 05:22N 01°18' E 104°01'0 0.0
2017-Nov-30 04:59N 01°18' E 104°01'1 1.1
2017-Nov-30 04:26N 01°17' E 104°00'3 6.3
2017-Nov-30 04:00N 01°16' E 103°58'3 5.7
2017-Nov-30 03:30N 01°14' E 103°56'4 7.2
2017-Nov-30 03:00N 01°12' E 103°53'4 7.3
2017-Nov-30 02:30N 01°10' E 103°50'3 6.0
2017-Nov-30 02:01N 01°09' E 103°47'3 6.6
2017-Nov-30 01:30N 01°07' E 103°45'3 6.5
2017-Nov-30 01:00N 01°04' E 103°42'3 5.9
2017-Nov-30 00:30N 01°03' E 103°40'4 6.6
2017-Nov-29 23:58N 01°03' E 103°37'510.2
2017-Nov-29 23:30N 01°06' E 103°32'612.4
2017-Nov-29 23:00N 01°10' E 103°27'  

Dump ship's entire track history